Terminal Aerodrome Forecast
Issued by NWS

Home | Current Version | Previous Version | Text Only | Print | Product List | Glossary On
Versions: 1 2 3 4 5 6 7 8 9 10 11 12 13 14 15 16 17 18
000
FTUS46 KPDT 300537
TAFYKM
TAF
KYKM 300537Z 3006/3106 22008KT P6SM BKN100
     FM300800 20010KT P6SM VCSH BKN050 BKN100
     FM301000 22007KT P6SM -RA OVC050
     FM301500 22010KT P6SM VCSH SCT050 BKN100
     FM302000 25012G22KT P6SM BKN100
     FM310200 25012G22KT P6SM BKN100=

USA.gov is the U.S. government's official web portal to all federal, state and local government web resources and services.